sensor_id;sensor_type;location;lat;lon;timestamp;P1;durP1;ratioP1;P2;durP2;ratioP2
10511;SDS011;5304;48.604;2.096;2022-09-27T00:00:41;8.03;;;3.43;;
10511;SDS011;5304;48.604;2.096;2022-09-27T00:03:27;7.60;;;3.07;;
10511;SDS011;5304;48.604;2.096;2022-09-27T00:08:56;7.77;;;2.83;;
10511;SDS011;5304;48.604;2.096;2022-09-27T00:11:41;11.33;;;3.57;;
10511;SDS011;5304;48.604;2.096;2022-09-27T00:14:26;9.17;;;3.20;;
10511;SDS011;5304;48.604;2.096;2022-09-27T00:17:10;6.93;;;3.10;;
10511;SDS011;5304;48.604;2.096;2022-09-27T00:19:54;5.23;;;2.50;;
10511;SDS011;5304;48.604;2.096;2022-09-27T00:22:41;4.90;;;2.90;;
10511;SDS011;5304;48.604;2.096;2022-09-27T00:25:26;8.17;;;2.70;;
10511;SDS011;5304;48.604;2.096;2022-09-27T00:28:10;7.87;;;2.80;;
10511;SDS011;5304;48.604;2.096;2022-09-27T00:30:56;8.23;;;3.07;;
10511;SDS011;5304;48.604;2.096;2022-09-27T00:33:42;8.93;;;3.60;;
10511;SDS011;5304;48.604;2.096;2022-09-27T00:36:27;11.63;;;3.03;;
10511;SDS011;5304;48.604;2.096;2022-09-27T00:39:12;5.73;;;3.40;;
10511;SDS011;5304;48.604;2.096;2022-09-27T00:41:57;5.00;;;2.33;;
10511;SDS011;5304;48.604;2.096;2022-09-27T00:44:49;7.07;;;3.00;;
10511;SDS011;5304;48.604;2.096;2022-09-27T00:47:53;4.20;;;2.40;;
10511;SDS011;5304;48.604;2.096;2022-09-27T00:50:44;8.17;;;2.93;;
10511;SDS011;5304;48.604;2.096;2022-09-27T00:53:32;7.73;;;2.83;;
10511;SDS011;5304;48.604;2.096;2022-09-27T00:56:26;11.90;;;3.67;;
10511;SDS011;5304;48.604;2.096;2022-09-27T00:59:19;5.63;;;2.90;;
10511;SDS011;5304;48.604;2.096;2022-09-27T01:02:09;8.07;;;2.70;;
10511;SDS011;5304;48.604;2.096;2022-09-27T01:04:54;6.70;;;2.40;;
10511;SDS011;5304;48.604;2.096;2022-09-27T01:07:39;6.33;;;2.60;;
10511;SDS011;5304;48.604;2.096;2022-09-27T01:10:24;7.60;;;2.57;;
10511;SDS011;5304;48.604;2.096;2022-09-27T01:13:22;6.83;;;2.43;;
10511;SDS011;5304;48.604;2.096;2022-09-27T01:22:20;6.90;;;2.17;;
10511;SDS011;5304;48.604;2.096;2022-09-27T01:31:32;8.37;;;2.57;;
10511;SDS011;5304;48.604;2.096;2022-09-27T01:40:21;6.57;;;2.67;;
10511;SDS011;5304;48.604;2.096;2022-09-27T01:43:14;7.73;;;2.50;;
10511;SDS011;5304;48.604;2.096;2022-09-27T01:46:05;8.47;;;2.30;;
10511;SDS011;5304;48.604;2.096;2022-09-27T01:48:55;6.73;;;2.47;;
10511;SDS011;5304;48.604;2.096;2022-09-27T01:51:54;6.50;;;2.53;;
10511;SDS011;5304;48.604;2.096;2022-09-27T01:54:45;4.13;;;2.30;;
10511;SDS011;5304;48.604;2.096;2022-09-27T01:57:46;7.63;;;2.47;;
10511;SDS011;5304;48.604;2.096;2022-09-27T02:00:41;5.83;;;2.70;;
10511;SDS011;5304;48.604;2.096;2022-09-27T02:03:32;4.23;;;2.30;;
10511;SDS011;5304;48.604;2.096;2022-09-27T02:06:23;6.80;;;2.50;;
10511;SDS011;5304;48.604;2.096;2022-09-27T02:09:14;8.03;;;2.47;;
10511;SDS011;5304;48.604;2.096;2022-09-27T02:12:07;5.80;;;1.80;;
10511;SDS011;5304;48.604;2.096;2022-09-27T02:15:08;11.80;;;2.33;;
10511;SDS011;5304;48.604;2.096;2022-09-27T02:18:06;7.37;;;2.40;;
10511;SDS011;5304;48.604;2.096;2022-09-27T02:20:59;3.13;;;2.17;;
10511;SDS011;5304;48.604;2.096;2022-09-27T02:23:48;10.27;;;2.90;;
10511;SDS011;5304;48.604;2.096;2022-09-27T02:26:39;8.17;;;2.63;;
10511;SDS011;5304;48.604;2.096;2022-09-27T02:29:39;7.50;;;2.43;;
10511;SDS011;5304;48.604;2.096;2022-09-27T02:32:34;3.97;;;1.97;;
10511;SDS011;5304;48.604;2.096;2022-09-27T02:35:26;8.07;;;2.13;;
10511;SDS011;5304;48.604;2.096;2022-09-27T02:38:14;10.20;;;2.87;;
10511;SDS011;5304;48.604;2.096;2022-09-27T02:40:59;5.63;;;2.37;;
10511;SDS011;5304;48.604;2.096;2022-09-27T02:43:44;7.43;;;2.60;;
10511;SDS011;5304;48.604;2.096;2022-09-27T02:56:15;5.03;;;2.10;;
10511;SDS011;5304;48.604;2.096;2022-09-27T03:02:38;4.97;;;2.20;;
10511;SDS011;5304;48.604;2.096;2022-09-27T03:05:29;4.77;;;2.20;;
10511;SDS011;5304;48.604;2.096;2022-09-27T03:08:21;6.03;;;2.17;;
10511;SDS011;5304;48.604;2.096;2022-09-27T03:11:05;8.43;;;1.70;;
10511;SDS011;5304;48.604;2.096;2022-09-27T03:13:50;5.33;;;2.30;;
10511;SDS011;5304;48.604;2.096;2022-09-27T03:16:35;4.80;;;2.23;;
10511;SDS011;5304;48.604;2.096;2022-09-27T03:19:19;6.70;;;2.30;;
10511;SDS011;5304;48.604;2.096;2022-09-27T03:22:04;5.33;;;2.10;;
10511;SDS011;5304;48.604;2.096;2022-09-27T03:24:48;9.67;;;2.30;;
10511;SDS011;5304;48.604;2.096;2022-09-27T03:27:33;5.03;;;2.40;;
10511;SDS011;5304;48.604;2.096;2022-09-27T03:30:18;6.70;;;1.67;;
10511;SDS011;5304;48.604;2.096;2022-09-27T03:33:03;5.53;;;2.37;;
10511;SDS011;5304;48.604;2.096;2022-09-27T03:35:47;6.57;;;2.63;;
10511;SDS011;5304;48.604;2.096;2022-09-27T03:38:32;4.60;;;2.20;;
10511;SDS011;5304;48.604;2.096;2022-09-27T03:41:16;5.50;;;2.07;;
10511;SDS011;5304;48.604;2.096;2022-09-27T03:44:01;6.07;;;2.23;;
10511;SDS011;5304;48.604;2.096;2022-09-27T03:46:45;8.50;;;2.07;;
10511;SDS011;5304;48.604;2.096;2022-09-27T03:49:30;4.23;;;1.87;;
10511;SDS011;5304;48.604;2.096;2022-09-27T03:52:15;5.33;;;2.37;;
10511;SDS011;5304;48.604;2.096;2022-09-27T03:55:00;5.60;;;2.20;;
10511;SDS011;5304;48.604;2.096;2022-09-27T03:57:45;7.17;;;2.07;;
10511;SDS011;5304;48.604;2.096;2022-09-27T04:00:30;5.37;;;2.13;;
10511;SDS011;5304;48.604;2.096;2022-09-27T04:03:17;4.90;;;2.00;;
10511;SDS011;5304;48.604;2.096;2022-09-27T04:06:02;10.70;;;2.23;;
10511;SDS011;5304;48.604;2.096;2022-09-27T04:08:47;3.53;;;1.93;;
10511;SDS011;5304;48.604;2.096;2022-09-27T04:11:31;3.40;;;1.87;;
10511;SDS011;5304;48.604;2.096;2022-09-27T04:14:16;5.00;;;2.17;;
10511;SDS011;5304;48.604;2.096;2022-09-27T04:17:00;5.63;;;2.47;;
10511;SDS011;5304;48.604;2.096;2022-09-27T04:19:45;4.77;;;1.80;;
10511;SDS011;5304;48.604;2.096;2022-09-27T04:22:30;7.40;;;1.97;;
10511;SDS011;5304;48.604;2.096;2022-09-27T04:25:15;6.23;;;1.90;;
10511;SDS011;5304;48.604;2.096;2022-09-27T04:27:59;3.90;;;2.17;;
10511;SDS011;5304;48.604;2.096;2022-09-27T04:30:45;5.73;;;2.10;;
10511;SDS011;5304;48.604;2.096;2022-09-27T04:33:29;3.67;;;2.07;;
10511;SDS011;5304;48.604;2.096;2022-09-27T04:36:16;3.57;;;2.20;;
10511;SDS011;5304;48.604;2.096;2022-09-27T04:39:11;7.90;;;2.23;;
10511;SDS011;5304;48.604;2.096;2022-09-27T04:41:56;3.90;;;2.03;;
10511;SDS011;5304;48.604;2.096;2022-09-27T04:44:40;10.57;;;2.50;;
10511;SDS011;5304;48.604;2.096;2022-09-27T04:47:24;5.50;;;2.47;;
10511;SDS011;5304;48.604;2.096;2022-09-27T04:50:10;5.30;;;2.00;;
10511;SDS011;5304;48.604;2.096;2022-09-27T04:52:55;3.00;;;2.13;;
10511;SDS011;5304;48.604;2.096;2022-09-27T04:55:43;10.47;;;2.10;;
10511;SDS011;5304;48.604;2.096;2022-09-27T04:58:31;6.07;;;2.13;;
10511;SDS011;5304;48.604;2.096;2022-09-27T05:01:17;7.10;;;2.23;;
10511;SDS011;5304;48.604;2.096;2022-09-27T05:04:02;9.27;;;2.13;;
10511;SDS011;5304;48.604;2.096;2022-09-27T05:06:46;6.40;;;2.13;;
10511;SDS011;5304;48.604;2.096;2022-09-27T05:09:31;6.87;;;2.40;;
10511;SDS011;5304;48.604;2.096;2022-09-27T05:12:16;7.20;;;2.27;;
10511;SDS011;5304;48.604;2.096;2022-09-27T05:15:00;4.00;;;2.10;;
10511;SDS011;5304;48.604;2.096;2022-09-27T05:17:46;9.17;;;2.40;;
10511;SDS011;5304;48.604;2.096;2022-09-27T05:20:34;6.93;;;2.40;;
10511;SDS011;5304;48.604;2.096;2022-09-27T05:23:19;3.97;;;1.97;;
10511;SDS011;5304;48.604;2.096;2022-09-27T05:26:04;5.73;;;2.47;;
10511;SDS011;5304;48.604;2.096;2022-09-27T05:28:49;6.27;;;2.40;;
10511;SDS011;5304;48.604;2.096;2022-09-27T05:31:34;6.93;;;2.27;;
10511;SDS011;5304;48.604;2.096;2022-09-27T05:34:18;7.47;;;2.40;;
10511;SDS011;5304;48.604;2.096;2022-09-27T05:37:05;5.30;;;2.20;;
10511;SDS011;5304;48.604;2.096;2022-09-27T05:39:50;5.23;;;2.07;;
10511;SDS011;5304;48.604;2.096;2022-09-27T05:42:36;6.43;;;2.20;;
10511;SDS011;5304;48.604;2.096;2022-09-27T05:45:22;8.07;;;2.10;;
10511;SDS011;5304;48.604;2.096;2022-09-27T05:48:08;9.00;;;2.80;;
10511;SDS011;5304;48.604;2.096;2022-09-27T05:50:52;7.83;;;2.47;;
10511;SDS011;5304;48.604;2.096;2022-09-27T05:53:37;7.53;;;2.40;;
10511;SDS011;5304;48.604;2.096;2022-09-27T05:56:22;5.70;;;2.37;;
10511;SDS011;5304;48.604;2.096;2022-09-27T05:59:07;4.47;;;2.27;;
10511;SDS011;5304;48.604;2.096;2022-09-27T06:01:52;4.80;;;2.40;;
10511;SDS011;5304;48.604;2.096;2022-09-27T06:04:36;4.83;;;2.23;;
10511;SDS011;5304;48.604;2.096;2022-09-27T06:07:21;6.10;;;2.50;;
10511;SDS011;5304;48.604;2.096;2022-09-27T06:10:06;7.67;;;2.43;;
10511;SDS011;5304;48.604;2.096;2022-09-27T06:12:50;7.37;;;2.80;;
10511;SDS011;5304;48.604;2.096;2022-09-27T06:15:36;14.30;;;2.87;;
10511;SDS011;5304;48.604;2.096;2022-09-27T06:18:22;5.40;;;2.63;;
10511;SDS011;5304;48.604;2.096;2022-09-27T06:21:06;5.50;;;2.40;;
10511;SDS011;5304;48.604;2.096;2022-09-27T06:23:51;7.83;;;2.77;;
10511;SDS011;5304;48.604;2.096;2022-09-27T06:26:38;5.87;;;2.80;;
10511;SDS011;5304;48.604;2.096;2022-09-27T06:29:22;6.10;;;2.87;;
10511;SDS011;5304;48.604;2.096;2022-09-27T06:32:07;9.23;;;2.90;;
10511;SDS011;5304;48.604;2.096;2022-09-27T06:34:53;6.30;;;2.37;;
10511;SDS011;5304;48.604;2.096;2022-09-27T06:37:37;5.77;;;2.50;;
10511;SDS011;5304;48.604;2.096;2022-09-27T06:40:22;6.73;;;2.30;;
10511;SDS011;5304;48.604;2.096;2022-09-27T06:43:09;7.00;;;2.67;;
10511;SDS011;5304;48.604;2.096;2022-09-27T06:45:55;5.87;;;2.50;;
10511;SDS011;5304;48.604;2.096;2022-09-27T06:48:43;6.10;;;2.70;;
10511;SDS011;5304;48.604;2.096;2022-09-27T06:51:28;6.10;;;3.00;;
10511;SDS011;5304;48.604;2.096;2022-09-27T06:54:12;6.37;;;2.90;;
10511;SDS011;5304;48.604;2.096;2022-09-27T06:56:57;5.67;;;2.70;;
10511;SDS011;5304;48.604;2.096;2022-09-27T06:59:41;4.43;;;2.07;;
10511;SDS011;5304;48.604;2.096;2022-09-27T07:02:44;4.37;;;2.07;;
10511;SDS011;5304;48.604;2.096;2022-09-27T07:05:29;5.83;;;1.90;;
10511;SDS011;5304;48.604;2.096;2022-09-27T07:08:14;5.20;;;2.40;;
10511;SDS011;5304;48.604;2.096;2022-09-27T07:11:03;4.73;;;2.50;;
10511;SDS011;5304;48.604;2.096;2022-09-27T07:13:49;5.10;;;2.40;;
10511;SDS011;5304;48.604;2.096;2022-09-27T07:16:34;4.60;;;1.90;;
10511;SDS011;5304;48.604;2.096;2022-09-27T07:19:19;3.60;;;2.20;;
10511;SDS011;5304;48.604;2.096;2022-09-27T07:22:04;3.43;;;1.90;;
10511;SDS011;5304;48.604;2.096;2022-09-27T07:24:48;7.00;;;1.87;;
10511;SDS011;5304;48.604;2.096;2022-09-27T07:27:33;4.03;;;2.10;;
10511;SDS011;5304;48.604;2.096;2022-09-27T07:30:18;3.57;;;1.80;;
10511;SDS011;5304;48.604;2.096;2022-09-27T07:33:04;2.37;;;1.70;;
10511;SDS011;5304;48.604;2.096;2022-09-27T07:35:48;7.47;;;2.30;;
10511;SDS011;5304;48.604;2.096;2022-09-27T07:38:33;2.13;;;1.80;;
10511;SDS011;5304;48.604;2.096;2022-09-27T07:41:18;6.00;;;1.70;;
10511;SDS011;5304;48.604;2.096;2022-09-27T07:44:02;5.73;;;1.90;;
10511;SDS011;5304;48.604;2.096;2022-09-27T07:46:49;2.20;;;2.00;;
10511;SDS011;5304;48.604;2.096;2022-09-27T07:49:34;3.60;;;1.80;;
10511;SDS011;5304;48.604;2.096;2022-09-27T07:52:18;5.10;;;1.73;;
10511;SDS011;5304;48.604;2.096;2022-09-27T07:55:03;4.00;;;1.90;;
10511;SDS011;5304;48.604;2.096;2022-09-27T07:57:48;6.60;;;2.00;;
10511;SDS011;5304;48.604;2.096;2022-09-27T08:00:33;5.07;;;1.90;;
10511;SDS011;5304;48.604;2.096;2022-09-27T08:03:19;6.80;;;2.23;;
10511;SDS011;5304;48.604;2.096;2022-09-27T08:06:03;4.83;;;2.00;;
10511;SDS011;5304;48.604;2.096;2022-09-27T08:08:48;6.57;;;2.03;;
10511;SDS011;5304;48.604;2.096;2022-09-27T08:11:33;3.13;;;1.73;;
10511;SDS011;5304;48.604;2.096;2022-09-27T08:14:18;2.33;;;1.70;;
10511;SDS011;5304;48.604;2.096;2022-09-27T08:17:03;2.03;;;1.60;;
10511;SDS011;5304;48.604;2.096;2022-09-27T08:19:48;4.20;;;1.70;;
10511;SDS011;5304;48.604;2.096;2022-09-27T08:22:33;3.23;;;1.80;;
10511;SDS011;5304;48.604;2.096;2022-09-27T08:25:23;6.23;;;1.90;;
10511;SDS011;5304;48.604;2.096;2022-09-27T08:28:10;2.50;;;1.60;;
10511;SDS011;5304;48.604;2.096;2022-09-27T08:30:58;5.03;;;1.80;;
10511;SDS011;5304;48.604;2.096;2022-09-27T08:33:43;5.67;;;2.20;;
10511;SDS011;5304;48.604;2.096;2022-09-27T08:36:31;5.03;;;2.40;;
10511;SDS011;5304;48.604;2.096;2022-09-27T08:39:18;3.10;;;2.03;;
10511;SDS011;5304;48.604;2.096;2022-09-27T08:47:57;9.53;;;2.00;;
10511;SDS011;5304;48.604;2.096;2022-09-27T08:50:43;4.73;;;2.07;;
10511;SDS011;5304;48.604;2.096;2022-09-27T08:53:37;6.53;;;1.90;;
10511;SDS011;5304;48.604;2.096;2022-09-27T08:56:51;5.23;;;2.27;;
10511;SDS011;5304;48.604;2.096;2022-09-27T09:02:46;3.73;;;2.03;;
10511;SDS011;5304;48.604;2.096;2022-09-27T09:05:32;5.43;;;2.37;;
10511;SDS011;5304;48.604;2.096;2022-09-27T09:08:22;3.10;;;1.73;;
10511;SDS011;5304;48.604;2.096;2022-09-27T09:11:24;6.33;;;2.07;;
10511;SDS011;5304;48.604;2.096;2022-09-27T09:14:59;3.10;;;2.03;;
10511;SDS011;5304;48.604;2.096;2022-09-27T09:18:13;5.63;;;1.90;;
10511;SDS011;5304;48.604;2.096;2022-09-27T09:21:34;5.50;;;2.20;;
10511;SDS011;5304;48.604;2.096;2022-09-27T09:24:28;5.50;;;2.80;;
10511;SDS011;5304;48.604;2.096;2022-09-27T09:30:32;3.67;;;2.43;;
10511;SDS011;5304;48.604;2.096;2022-09-27T09:33:28;5.70;;;2.50;;
10511;SDS011;5304;48.604;2.096;2022-09-27T09:39:16;3.80;;;2.30;;
10511;SDS011;5304;48.604;2.096;2022-09-27T09:45:21;4.27;;;2.30;;
10511;SDS011;5304;48.604;2.096;2022-09-27T09:51:20;6.77;;;1.90;;
10511;SDS011;5304;48.604;2.096;2022-09-27T09:54:14;7.23;;;3.13;;
10511;SDS011;5304;48.604;2.096;2022-09-27T09:57:15;7.00;;;2.03;;
10511;SDS011;5304;48.604;2.096;2022-09-27T10:00:14;5.70;;;2.10;;
10511;SDS011;5304;48.604;2.096;2022-09-27T10:03:01;4.80;;;2.13;;
10511;SDS011;5304;48.604;2.096;2022-09-27T10:05:46;8.73;;;2.43;;
10511;SDS011;5304;48.604;2.096;2022-09-27T10:08:31;3.37;;;1.93;;
10511;SDS011;5304;48.604;2.096;2022-09-27T10:11:20;6.03;;;2.00;;
10511;SDS011;5304;48.604;2.096;2022-09-27T10:14:11;5.73;;;1.80;;
10511;SDS011;5304;48.604;2.096;2022-09-27T10:17:01;6.57;;;2.33;;
10511;SDS011;5304;48.604;2.096;2022-09-27T10:19:52;8.77;;;2.60;;
10511;SDS011;5304;48.604;2.096;2022-09-27T10:22:42;7.13;;;1.90;;
10511;SDS011;5304;48.604;2.096;2022-09-27T10:28:42;8.00;;;2.53;;
10511;SDS011;5304;48.604;2.096;2022-09-27T10:31:32;7.90;;;2.27;;
10511;SDS011;5304;48.604;2.096;2022-09-27T10:37:19;4.40;;;1.80;;
10511;SDS011;5304;48.604;2.096;2022-09-27T10:40:15;6.83;;;2.33;;
10511;SDS011;5304;48.604;2.096;2022-09-27T10:43:31;9.07;;;2.97;;
10511;SDS011;5304;48.604;2.096;2022-09-27T10:49:20;7.40;;;2.03;;
10511;SDS011;5304;48.604;2.096;2022-09-27T10:52:35;4.07;;;1.93;;
10511;SDS011;5304;48.604;2.096;2022-09-27T10:55:22;6.97;;;2.13;;
10511;SDS011;5304;48.604;2.096;2022-09-27T10:58:19;7.03;;;2.73;;
10511;SDS011;5304;48.604;2.096;2022-09-27T11:01:14;7.37;;;2.33;;
10511;SDS011;5304;48.604;2.096;2022-09-27T11:03:58;6.10;;;2.63;;
10511;SDS011;5304;48.604;2.096;2022-09-27T11:06:43;6.73;;;2.20;;
10511;SDS011;5304;48.604;2.096;2022-09-27T11:09:28;6.03;;;2.50;;
10511;SDS011;5304;48.604;2.096;2022-09-27T11:12:12;11.00;;;2.67;;
10511;SDS011;5304;48.604;2.096;2022-09-27T11:15:00;7.70;;;1.90;;
10511;SDS011;5304;48.604;2.096;2022-09-27T11:17:55;7.97;;;2.50;;
10511;SDS011;5304;48.604;2.096;2022-09-27T11:20:50;9.30;;;2.50;;
10511;SDS011;5304;48.604;2.096;2022-09-27T11:24:18;11.20;;;2.33;;
10511;SDS011;5304;48.604;2.096;2022-09-27T11:30:14;9.30;;;2.20;;
10511;SDS011;5304;48.604;2.096;2022-09-27T11:33:10;10.70;;;2.73;;
10511;SDS011;5304;48.604;2.096;2022-09-27T11:45:34;10.23;;;2.37;;
10511;SDS011;5304;48.604;2.096;2022-09-27T11:48:37;6.97;;;2.50;;
10511;SDS011;5304;48.604;2.096;2022-09-27T11:51:46;5.43;;;2.40;;
10511;SDS011;5304;48.604;2.096;2022-09-27T11:55:08;7.73;;;2.60;;
10511;SDS011;5304;48.604;2.096;2022-09-27T11:58:25;8.73;;;2.33;;
10511;SDS011;5304;48.604;2.096;2022-09-27T12:01:23;7.83;;;2.40;;
10511;SDS011;5304;48.604;2.096;2022-09-27T12:10:50;9.03;;;2.50;;
10511;SDS011;5304;48.604;2.096;2022-09-27T12:17:29;4.60;;;2.00;;
10511;SDS011;5304;48.604;2.096;2022-09-27T12:20:30;5.00;;;1.77;;
10511;SDS011;5304;48.604;2.096;2022-09-27T12:23:22;5.43;;;2.27;;
10511;SDS011;5304;48.604;2.096;2022-09-27T12:26:34;3.27;;;1.83;;
10511;SDS011;5304;48.604;2.096;2022-09-27T12:32:24;3.30;;;1.57;;
10511;SDS011;5304;48.604;2.096;2022-09-27T12:35:34;5.20;;;2.03;;
10511;SDS011;5304;48.604;2.096;2022-09-27T12:38:38;7.57;;;2.33;;
10511;SDS011;5304;48.604;2.096;2022-09-27T12:41:27;5.13;;;2.20;;
10511;SDS011;5304;48.604;2.096;2022-09-27T12:44:17;5.77;;;2.10;;
10511;SDS011;5304;48.604;2.096;2022-09-27T12:47:05;13.83;;;2.10;;
10511;SDS011;5304;48.604;2.096;2022-09-27T12:53:05;5.83;;;2.80;;
10511;SDS011;5304;48.604;2.096;2022-09-27T13:02:25;13.20;;;2.73;;
10511;SDS011;5304;48.604;2.096;2022-09-27T13:14:33;11.20;;;3.37;;
10511;SDS011;5304;48.604;2.096;2022-09-27T13:17:32;7.70;;;2.73;;
10511;SDS011;5304;48.604;2.096;2022-09-27T13:26:24;8.63;;;2.37;;
10511;SDS011;5304;48.604;2.096;2022-09-27T13:29:27;8.93;;;2.57;;
10511;SDS011;5304;48.604;2.096;2022-09-27T13:32:14;5.73;;;2.30;;
10511;SDS011;5304;48.604;2.096;2022-09-27T13:38:21;6.03;;;2.73;;
10511;SDS011;5304;48.604;2.096;2022-09-27T13:41:17;7.30;;;2.30;;
10511;SDS011;5304;48.604;2.096;2022-09-27T13:56:05;12.63;;;2.80;;
10511;SDS011;5304;48.604;2.096;2022-09-27T13:59:36;13.27;;;2.20;;
10511;SDS011;5304;48.604;2.096;2022-09-27T14:02:37;9.70;;;2.70;;
10511;SDS011;5304;48.604;2.096;2022-09-27T14:05:38;8.80;;;3.20;;
10511;SDS011;5304;48.604;2.096;2022-09-27T14:11:36;7.63;;;2.80;;
10511;SDS011;5304;48.604;2.096;2022-09-27T14:14:23;8.47;;;2.50;;
10511;SDS011;5304;48.604;2.096;2022-09-27T14:17:10;13.30;;;3.27;;
10511;SDS011;5304;48.604;2.096;2022-09-27T14:19:55;10.47;;;2.27;;
10511;SDS011;5304;48.604;2.096;2022-09-27T14:22:40;10.73;;;2.73;;
10511;SDS011;5304;48.604;2.096;2022-09-27T14:25:24;12.80;;;3.27;;
10511;SDS011;5304;48.604;2.096;2022-09-27T14:28:29;7.63;;;2.83;;
10511;SDS011;5304;48.604;2.096;2022-09-27T14:31:22;9.17;;;2.70;;
10511;SDS011;5304;48.604;2.096;2022-09-27T14:34:09;10.57;;;2.70;;
10511;SDS011;5304;48.604;2.096;2022-09-27T14:36:54;12.07;;;2.67;;
10511;SDS011;5304;48.604;2.096;2022-09-27T14:40:00;11.77;;;3.10;;
10511;SDS011;5304;48.604;2.096;2022-09-27T14:42:52;10.10;;;2.40;;
10511;SDS011;5304;48.604;2.096;2022-09-27T14:45:38;11.80;;;2.80;;
10511;SDS011;5304;48.604;2.096;2022-09-27T14:48:30;10.50;;;2.70;;
10511;SDS011;5304;48.604;2.096;2022-09-27T14:51:17;12.37;;;3.23;;
10511;SDS011;5304;48.604;2.096;2022-09-27T14:54:04;9.90;;;2.70;;
10511;SDS011;5304;48.604;2.096;2022-09-27T14:56:53;12.20;;;3.50;;
10511;SDS011;5304;48.604;2.096;2022-09-27T14:59:39;11.87;;;3.10;;
10511;SDS011;5304;48.604;2.096;2022-09-27T15:02:28;13.23;;;2.93;;
10511;SDS011;5304;48.604;2.096;2022-09-27T15:05:16;19.37;;;4.10;;
10511;SDS011;5304;48.604;2.096;2022-09-27T15:08:03;13.40;;;3.43;;
10511;SDS011;5304;48.604;2.096;2022-09-27T15:10:48;16.63;;;3.60;;
10511;SDS011;5304;48.604;2.096;2022-09-27T15:13:33;12.43;;;3.20;;
10511;SDS011;5304;48.604;2.096;2022-09-27T15:16:20;12.13;;;3.40;;
10511;SDS011;5304;48.604;2.096;2022-09-27T15:19:16;17.47;;;3.87;;
10511;SDS011;5304;48.604;2.096;2022-09-27T15:22:54;10.77;;;3.10;;
10511;SDS011;5304;48.604;2.096;2022-09-27T15:28:17;14.87;;;3.57;;
10511;SDS011;5304;48.604;2.096;2022-09-27T15:31:02;12.70;;;2.97;;
10511;SDS011;5304;48.604;2.096;2022-09-27T15:33:52;13.33;;;3.17;;
10511;SDS011;5304;48.604;2.096;2022-09-27T15:39:35;8.43;;;2.97;;
10511;SDS011;5304;48.604;2.096;2022-09-27T15:42:20;15.03;;;3.23;;
10511;SDS011;5304;48.604;2.096;2022-09-27T15:45:07;15.80;;;3.77;;
10511;SDS011;5304;48.604;2.096;2022-09-27T15:48:17;13.43;;;2.80;;
10511;SDS011;5304;48.604;2.096;2022-09-27T15:51:03;9.00;;;3.13;;
10511;SDS011;5304;48.604;2.096;2022-09-27T15:54:24;13.20;;;3.37;;
10511;SDS011;5304;48.604;2.096;2022-09-27T15:57:13;12.20;;;3.30;;
10511;SDS011;5304;48.604;2.096;2022-09-27T15:59:57;14.57;;;3.87;;
10511;SDS011;5304;48.604;2.096;2022-09-27T16:02:42;14.40;;;3.00;;
10511;SDS011;5304;48.604;2.096;2022-09-27T16:05:29;15.27;;;3.30;;
10511;SDS011;5304;48.604;2.096;2022-09-27T16:08:15;13.20;;;3.40;;
10511;SDS011;5304;48.604;2.096;2022-09-27T16:11:00;11.87;;;2.97;;
10511;SDS011;5304;48.604;2.096;2022-09-27T16:13:45;15.33;;;3.40;;
10511;SDS011;5304;48.604;2.096;2022-09-27T16:16:30;12.27;;;3.50;;
10511;SDS011;5304;48.604;2.096;2022-09-27T16:19:15;15.77;;;3.80;;
10511;SDS011;5304;48.604;2.096;2022-09-27T16:21:59;15.47;;;3.20;;
10511;SDS011;5304;48.604;2.096;2022-09-27T16:24:46;22.60;;;4.13;;
10511;SDS011;5304;48.604;2.096;2022-09-27T16:27:32;13.00;;;3.07;;
10511;SDS011;5304;48.604;2.096;2022-09-27T16:30:17;14.43;;;3.83;;
10511;SDS011;5304;48.604;2.096;2022-09-27T16:33:03;19.33;;;4.10;;
10511;SDS011;5304;48.604;2.096;2022-09-27T16:35:47;14.83;;;3.47;;
10511;SDS011;5304;48.604;2.096;2022-09-27T16:38:32;16.53;;;3.83;;
10511;SDS011;5304;48.604;2.096;2022-09-27T16:41:20;17.17;;;4.10;;
10511;SDS011;5304;48.604;2.096;2022-09-27T16:44:05;17.37;;;3.67;;
10511;SDS011;5304;48.604;2.096;2022-09-27T16:46:50;21.43;;;4.30;;
10511;SDS011;5304;48.604;2.096;2022-09-27T16:49:35;13.50;;;3.80;;
10511;SDS011;5304;48.604;2.096;2022-09-27T16:52:38;14.40;;;3.67;;
10511;SDS011;5304;48.604;2.096;2022-09-27T16:55:25;17.80;;;4.20;;
10511;SDS011;5304;48.604;2.096;2022-09-27T16:58:11;15.40;;;4.10;;
10511;SDS011;5304;48.604;2.096;2022-09-27T17:00:56;21.93;;;4.17;;
10511;SDS011;5304;48.604;2.096;2022-09-27T17:03:42;12.30;;;3.20;;
10511;SDS011;5304;48.604;2.096;2022-09-27T17:06:32;15.30;;;4.23;;
10511;SDS011;5304;48.604;2.096;2022-09-27T17:09:17;18.00;;;4.17;;
10511;SDS011;5304;48.604;2.096;2022-09-27T17:12:01;15.57;;;3.77;;
10511;SDS011;5304;48.604;2.096;2022-09-27T17:14:45;15.37;;;4.43;;
10511;SDS011;5304;48.604;2.096;2022-09-27T17:17:30;17.27;;;4.50;;
10511;SDS011;5304;48.604;2.096;2022-09-27T17:20:14;16.60;;;4.00;;
10511;SDS011;5304;48.604;2.096;2022-09-27T17:22:59;17.33;;;4.57;;
10511;SDS011;5304;48.604;2.096;2022-09-27T17:25:43;17.40;;;4.03;;
10511;SDS011;5304;48.604;2.096;2022-09-27T17:28:28;19.43;;;4.23;;
10511;SDS011;5304;48.604;2.096;2022-09-27T17:31:13;19.67;;;4.00;;
10511;SDS011;5304;48.604;2.096;2022-09-27T17:34:00;17.60;;;4.50;;
10511;SDS011;5304;48.604;2.096;2022-09-27T17:36:45;15.00;;;4.13;;
10511;SDS011;5304;48.604;2.096;2022-09-27T17:39:35;16.37;;;4.13;;
10511;SDS011;5304;48.604;2.096;2022-09-27T17:42:19;16.70;;;4.00;;
10511;SDS011;5304;48.604;2.096;2022-09-27T17:45:06;14.37;;;3.37;;
10511;SDS011;5304;48.604;2.096;2022-09-27T17:47:51;22.27;;;4.67;;
10511;SDS011;5304;48.604;2.096;2022-09-27T17:50:54;17.23;;;4.53;;
10511;SDS011;5304;48.604;2.096;2022-09-27T17:53:39;12.33;;;3.90;;
10511;SDS011;5304;48.604;2.096;2022-09-27T17:56:23;14.03;;;4.17;;
10511;SDS011;5304;48.604;2.096;2022-09-27T17:59:09;15.67;;;4.20;;
10511;SDS011;5304;48.604;2.096;2022-09-27T18:01:54;17.03;;;4.40;;
10511;SDS011;5304;48.604;2.096;2022-09-27T18:04:38;12.87;;;4.00;;
10511;SDS011;5304;48.604;2.096;2022-09-27T18:07:23;18.03;;;3.77;;
10511;SDS011;5304;48.604;2.096;2022-09-27T18:10:08;16.20;;;4.60;;
10511;SDS011;5304;48.604;2.096;2022-09-27T18:12:52;16.23;;;4.67;;
10511;SDS011;5304;48.604;2.096;2022-09-27T18:15:37;23.03;;;4.33;;
10511;SDS011;5304;48.604;2.096;2022-09-27T18:18:21;28.27;;;4.83;;
10511;SDS011;5304;48.604;2.096;2022-09-27T18:21:10;17.77;;;5.47;;
10511;SDS011;5304;48.604;2.096;2022-09-27T18:23:59;20.43;;;4.67;;
10511;SDS011;5304;48.604;2.096;2022-09-27T18:26:46;13.63;;;4.30;;
10511;SDS011;5304;48.604;2.096;2022-09-27T18:29:31;16.67;;;4.07;;
10511;SDS011;5304;48.604;2.096;2022-09-27T18:32:16;19.03;;;4.87;;
10511;SDS011;5304;48.604;2.096;2022-09-27T18:35:01;15.20;;;4.60;;
10511;SDS011;5304;48.604;2.096;2022-09-27T18:37:45;15.73;;;4.00;;
10511;SDS011;5304;48.604;2.096;2022-09-27T18:40:30;14.90;;;4.03;;
10511;SDS011;5304;48.604;2.096;2022-09-27T18:43:14;15.67;;;3.87;;
10511;SDS011;5304;48.604;2.096;2022-09-27T18:45:59;17.67;;;3.77;;
10511;SDS011;5304;48.604;2.096;2022-09-27T18:48:45;12.23;;;3.50;;
10511;SDS011;5304;48.604;2.096;2022-09-27T18:51:29;21.43;;;4.17;;
10511;SDS011;5304;48.604;2.096;2022-09-27T18:54:20;13.67;;;3.60;;
10511;SDS011;5304;48.604;2.096;2022-09-27T18:57:05;12.13;;;3.37;;
10511;SDS011;5304;48.604;2.096;2022-09-27T18:59:49;12.23;;;3.57;;
10511;SDS011;5304;48.604;2.096;2022-09-27T19:02:34;10.73;;;3.87;;
10511;SDS011;5304;48.604;2.096;2022-09-27T19:05:18;15.83;;;4.30;;
10511;SDS011;5304;48.604;2.096;2022-09-27T19:08:03;15.07;;;3.77;;
10511;SDS011;5304;48.604;2.096;2022-09-27T19:10:47;14.03;;;3.07;;
10511;SDS011;5304;48.604;2.096;2022-09-27T19:13:32;8.57;;;3.30;;
10511;SDS011;5304;48.604;2.096;2022-09-27T19:16:17;13.43;;;3.13;;
10511;SDS011;5304;48.604;2.096;2022-09-27T19:19:03;8.20;;;3.40;;
10511;SDS011;5304;48.604;2.096;2022-09-27T19:21:48;10.37;;;3.30;;
10511;SDS011;5304;48.604;2.096;2022-09-27T19:24:32;12.27;;;3.07;;
10511;SDS011;5304;48.604;2.096;2022-09-27T19:27:17;12.10;;;3.37;;
10511;SDS011;5304;48.604;2.096;2022-09-27T19:30:04;8.03;;;3.20;;